Sitka, AK

3:17 PM AKST on December 24, 2014 (GMT -0900)
Sitka Rocky Gutierrez | Change Station
CLOSE
Current Station
Airport
Location: Sitka,
Elevation: 20 ft
Nearby Weather Stations

Elev 20 ft 57.05 °N, 135.36 °W | Updated 24 minutes ago

Light Rain
Light Rain
37 °F
Feels Like 34 °F
N
4
Wind Variable Wind from East

Today
High -- | Low -- °F
--% Chance of Precip.
Yesterday
High -- | Low -- °F
Precip. -- in
8:39 AM 3:22 PM
Waxing Crescent, 12% visible
Pressure 29.91 in
Visibility 8.0 miles
Clouds Few 2400 ft
Mostly Cloudy 3200 ft
Overcast 5000 ft
Windchill 34 °F
Dew Point 36 °F
Humidity 96%
Rainfall 0.22 in
Snow Depth Not available.
UV 0 out of 12
Pollen Not available.
Air Quality Not available.
Flu Activity Not available.
METAR PASI 242353Z 09003KT 8SM -RA FEW024 BKN032 OVC050 03/02 A2990 RMK AO2 RAB05E26B53 SLP126 P0001 60019 T00280022 10033 20017 51006

More Conditions Fewer Conditions

Pressure 29.91 in
Visibility 8.0 miles
Clouds Few 2400 ft
Mostly Cloudy 3200 ft
Overcast 5000 ft
Windchill 34 °F
Dew Point 36 °F
Humidity 96%
Rainfall 0.22 in
Snow Depth Not available.
UV 0 out of 12
Pollen Not available.
Air Quality Not available.
Flu Activity Not available.
METAR PASI 242353Z 09003KT 8SM -RA FEW024 BKN032 OVC050 03/02 A2990 RMK AO2 RAB05E26B53 SLP126 P0001 60019 T00280022 10033 20017 51006

More Conditions Fewer Conditions

10-Day Weather Forecast

Almanac

Astronomy

Dec. 24, 2014 Rise Set
Actual Time
Civil Twilight
Nautical Twilight
Astronomical Twilight
Moon
Length of Visible Light
Length of Day
Tomorrow will be .
, % of the Moon is Illuminated

Today's Extremes

State Highs State Lows

Community

WunderPhotos

Upload Photos

1,780,188 photos uploaded!

WunderBlogs® & News

Nearby

Air Quality

  Air Quality AQ Index Pollutant
Not available.

Snow Depth

Station Depth Elevation

Earthquake Activity

City Distance Mag. Time & Date
Minimum magnitude displayed is 2.5.

Coastal Water Temperatures

Place Temperature

Nearby Weather Stations